メインページ
METAR-TAF:

METAR-TAF

空港 :

ザグレブ国際空港

ザグレブ, クロアチア

緯度: 45-44N, 経度: 016-04E, 海抜: 106m

現時点の気象観測

当レポートは22分前の05:00(UTC)に作成
変向風 1kt
気温 1°C
湿度 80%
気圧 1020 hPa
視程10km以上
1,500メートル以下は雲なし、積乱雲なし

METAR: LDZA 040500Z VRB01KT CAVOK 01/M02 Q1020 NOSIG

時間: 07:22 (05:22 UTC)

予報

当レポートは5時間57分前の23:25(UTC)に作成
予報は04日の 00時(UTC)から 05日の 00時(UTC)まで有効
北東の風 6kt
視程10km以上
1,500メートル以下は雲なし、積乱雲なし
04日の 06時(UTC)から 04日の 08時(UTC)まで徐々に
北東の風 12kt
04日の 20時(UTC)から 04日の 22時(UTC)まで徐々に
北東の風 7kt

TAF: LDZA 032325Z 0400/0500 04006KT CAVOK TX18/0413Z TN04/0404Z BECMG 0406/0408 04012KT BECMG 0420/0422 04007KT

4,000以上の空港の気象観測と天気予報(METAR報とTAF報)

利用可能な観測所は地図上に黄色い丸と赤い丸で示す。

丸の上にカーソルを重ねると観測所名を参照できる。

次にクリックすると気象観測と天気予報を参照できる。

マップの切り替え:黒色「×」印の緑ボタンをクリックして拡大、「-」印の緑ボタンをクリックして縮小、緑色の三角印をクリックして隣りの地図に切り替え


METAR-TAF: